createdAt,value
2019-01-19T00:01:36.134Z,27.00
2019-01-19T00:04:14.247Z,26.17
2019-01-19T00:06:46.715Z,24.57
2019-01-19T00:09:31.103Z,28.10
2019-01-19T00:12:18.509Z,24.40
2019-01-19T00:14:48.236Z,25.80
2019-01-19T00:17:34.947Z,25.20
2019-01-19T00:20:16.266Z,26.30
2019-01-19T00:22:57.708Z,26.00
2019-01-19T00:25:42.081Z,28.03
2019-01-19T00:28:35.676Z,26.37
2019-01-19T00:31:10.778Z,21.80
2019-01-19T00:34:06.901Z,25.70
2019-01-19T00:36:39.328Z,25.03
2019-01-19T00:39:29.891Z,24.70
2019-01-19T00:42:02.335Z,20.27
2019-01-19T00:44:43.017Z,24.73
2019-01-19T00:47:24.172Z,24.03
2019-01-19T00:49:59.159Z,24.10
2019-01-19T00:52:31.596Z,22.00
2019-01-19T00:55:44.287Z,19.37
2019-01-19T00:58:16.724Z,23.03
2019-01-19T01:01:07.355Z,20.60
2019-01-19T01:03:47.335Z,24.03
2019-01-19T01:06:35.888Z,23.03
2019-01-19T01:09:36.954Z,20.93
2019-01-19T01:12:12.061Z,18.67
2019-01-19T01:14:50.270Z,21.30
2019-01-19T01:17:22.734Z,20.23
2019-01-19T01:20:15.764Z,18.60
2019-01-19T01:22:50.796Z,19.87
2019-01-19T01:25:43.704Z,21.63
2019-01-19T01:28:27.972Z,22.57
2019-01-19T01:31:09.355Z,19.83
2019-01-19T01:33:41.814Z,24.63
2019-01-19T01:36:32.255Z,24.43
2019-01-19T01:39:13.392Z,22.50
2019-01-19T01:42:03.682Z,26.00
2019-01-19T01:44:51.209Z,21.43
2019-01-19T01:47:44.884Z,17.87
2019-01-19T01:50:23.415Z,21.30
2019-01-19T01:53:12.296Z,21.73
2019-01-19T01:55:41.765Z,20.87
2019-01-19T01:58:14.347Z,20.10
2019-01-19T02:00:52.480Z,19.23
2019-01-19T02:03:36.917Z,20.20
2019-01-19T02:06:29.071Z,24.17
2019-01-19T02:09:15.875Z,19.57
2019-01-19T02:12:00.519Z,22.33
2019-01-19T02:14:32.943Z,21.80
2019-01-19T02:17:17.426Z,22.90
2019-01-19T02:20:01.759Z,23.07
2019-01-19T02:22:56.956Z,21.80
2019-01-19T02:25:44.121Z,19.27
2019-01-19T02:28:31.365Z,22.50
2019-01-19T02:31:25.761Z,20.03
2019-01-19T02:34:03.343Z,24.70
2019-01-19T02:36:57.204Z,18.93
2019-01-19T02:39:52.124Z,22.70
2019-01-19T02:42:48.262Z,18.33
2019-01-19T02:45:35.771Z,18.83
2019-01-19T02:48:22.835Z,25.63
2019-01-19T02:50:58.257Z,17.97
2019-01-19T02:53:47.121Z,19.30
2019-01-19T02:56:19.593Z,21.80
2019-01-19T02:59:24.838Z,17.37
2019-01-19T03:01:57.294Z,15.20
2019-01-19T03:04:50.395Z,16.27
2019-01-19T03:07:34.583Z,16.77
2019-01-19T03:10:15.679Z,22.23
2019-01-19T03:12:57.016Z,18.80
2019-01-19T03:15:32.363Z,17.73
2019-01-19T03:18:10.618Z,19.17
2019-01-19T03:20:48.386Z,17.73
2019-01-19T03:23:23.520Z,20.43
2019-01-19T03:26:01.904Z,21.10
2019-01-19T03:29:01.272Z,21.80
2019-01-19T03:31:39.232Z,20.00
2019-01-19T03:34:38.650Z,18.43
2019-01-19T03:37:20.063Z,20.00
2019-01-19T03:40:01.356Z,20.57
2019-01-19T03:43:07.820Z,21.30
2019-01-19T03:46:00.956Z,22.07
2019-01-19T03:49:00.188Z,19.00
2019-01-19T03:51:35.556Z,15.73
2019-01-19T03:54:10.885Z,18.13
2019-01-19T03:56:55.767Z,19.37
2019-01-19T03:59:34.179Z,19.27
2019-01-19T04:02:18.759Z,17.37
2019-01-19T04:04:54.096Z,15.00
2019-01-19T04:07:26.572Z,17.73
2019-01-19T04:10:25.878Z,15.53
2019-01-19T04:13:13.178Z,16.80
2019-01-19T04:16:03.432Z,14.77
2019-01-19T04:18:38.625Z,18.93
2019-01-19T04:21:32.184Z,15.83
2019-01-19T04:24:04.660Z,14.83
2019-01-19T04:26:35.281Z,19.70
2019-01-19T04:29:04.666Z,14.80
2019-01-19T04:31:34.053Z,16.57
2019-01-19T04:34:04.059Z,17.93
2019-01-19T04:36:33.846Z,16.63
2019-01-19T04:39:06.473Z,15.77
2019-01-19T04:41:35.821Z,19.10
2019-01-19T04:44:05.694Z,17.40
2019-01-19T04:46:35.139Z,17.30
2019-01-19T04:49:04.801Z,19.67
2019-01-19T04:51:34.159Z,16.73
2019-01-19T04:54:03.776Z,16.40
2019-01-19T04:56:33.167Z,18.17
2019-01-19T04:59:02.620Z,18.07
2019-01-19T05:01:32.026Z,19.70
2019-01-19T05:04:06.355Z,17.33
2019-01-19T05:06:35.712Z,18.53
2019-01-19T05:09:06.931Z,21.77
2019-01-19T05:11:36.292Z,18.20
2019-01-19T05:14:05.682Z,23.53
2019-01-19T05:16:35.092Z,19.83
2019-01-19T05:19:04.613Z,27.33
2019-01-19T05:21:33.959Z,25.30
2019-01-19T05:24:03.366Z,19.73
2019-01-19T05:26:32.741Z,16.37
2019-01-19T05:29:02.105Z,18.17
2019-01-19T05:31:31.509Z,20.87
2019-01-19T05:34:10.778Z,17.60
2019-01-19T05:36:40.206Z,19.70
2019-01-19T05:39:09.559Z,18.33
2019-01-19T05:41:38.924Z,24.10
2019-01-19T05:44:08.300Z,22.10
2019-01-19T05:46:37.667Z,21.03
2019-01-19T05:49:07.032Z,24.80
2019-01-19T05:51:36.458Z,21.27
2019-01-19T05:54:05.892Z,18.43
2019-01-19T05:56:35.257Z,20.63
2019-01-19T05:59:04.732Z,16.83
2019-01-19T06:01:34.089Z,17.60
2019-01-19T06:04:03.778Z,16.53
2019-01-19T06:06:33.745Z,17.37
2019-01-19T06:09:04.675Z,18.47
2019-01-19T06:11:34.056Z,20.50
2019-01-19T06:14:03.441Z,21.70
2019-01-19T06:16:32.799Z,21.80
2019-01-19T06:19:02.331Z,21.47
2019-01-19T06:21:32.156Z,17.97
2019-01-19T06:24:01.600Z,19.80
2019-01-19T06:26:30.974Z,15.67
2019-01-19T06:29:00.430Z,21.43
2019-01-19T06:31:29.802Z,18.43
2019-01-19T06:33:59.156Z,18.83
2019-01-19T06:36:28.560Z,17.70
2019-01-19T06:38:58.009Z,19.13
2019-01-19T06:41:27.364Z,20.03
2019-01-19T06:43:56.826Z,19.27
2019-01-19T06:46:26.214Z,19.70
2019-01-19T06:48:55.577Z,18.27
2019-01-19T06:51:25.074Z,19.47
2019-01-19T06:54:01.497Z,18.40
2019-01-19T06:56:27.113Z,21.40
2019-01-19T06:58:56.558Z,19.40
2019-01-19T07:01:26.001Z,19.33
2019-01-19T07:03:55.444Z,17.70
2019-01-19T07:06:24.847Z,17.33
2019-01-19T07:08:54.239Z,18.67
2019-01-19T07:11:23.584Z,16.13
2019-01-19T07:13:52.984Z,17.30
2019-01-19T07:16:22.351Z,16.10
2019-01-19T07:18:52.142Z,19.07
2019-01-19T07:21:21.572Z,18.33
2019-01-19T07:23:50.954Z,19.33
2019-01-19T07:26:20.312Z,19.97
2019-01-19T07:28:49.699Z,17.37
2019-01-19T07:31:19.071Z,17.50
2019-01-19T07:33:48.430Z,17.67
2019-01-19T07:36:17.807Z,20.87
2019-01-19T07:38:47.168Z,18.90
2019-01-19T07:41:16.617Z,24.50
2019-01-19T07:43:45.992Z,38.27
2019-01-19T07:46:15.538Z,32.50
2019-01-19T07:48:44.908Z,26.47
2019-01-19T07:51:14.296Z,24.57
2019-01-19T07:53:43.664Z,23.47
2019-01-19T07:56:13.028Z,23.50
2019-01-19T07:58:42.420Z,26.43
2019-01-19T08:01:11.764Z,23.47
2019-01-19T08:03:41.128Z,25.77
2019-01-19T08:06:10.536Z,21.33
2019-01-19T08:08:39.899Z,24.60
2019-01-19T08:11:09.247Z,25.37
2019-01-19T08:13:38.635Z,22.40
2019-01-19T08:16:07.987Z,24.20
2019-01-19T08:18:37.360Z,23.90
2019-01-19T08:21:06.748Z,22.67
2019-01-19T08:23:36.115Z,25.90
2019-01-19T08:26:05.539Z,19.97
2019-01-19T08:28:34.924Z,23.63
2019-01-19T08:31:04.439Z,20.63
2019-01-19T08:33:33.791Z,21.53
2019-01-19T08:36:03.555Z,24.90
2019-01-19T08:38:32.905Z,24.20
2019-01-19T08:41:02.269Z,23.80
2019-01-19T08:43:33.314Z,24.03
2019-01-19T08:46:02.670Z,24.60
2019-01-19T08:48:32.089Z,23.73
2019-01-19T08:51:01.491Z,23.77
2019-01-19T08:53:30.849Z,23.80
2019-01-19T08:56:00.287Z,22.03
2019-01-19T08:58:29.736Z,23.73
2019-01-19T09:00:59.094Z,22.43
2019-01-19T09:03:28.427Z,23.80
2019-01-19T09:05:57.853Z,23.73
2019-01-19T09:08:27.248Z,22.67
2019-01-19T09:10:56.607Z,23.23
2019-01-19T09:13:25.978Z,23.70
2019-01-19T09:15:56.270Z,24.93
2019-01-19T09:18:25.638Z,25.50
2019-01-19T09:20:55.034Z,23.07
2019-01-19T09:23:26.030Z,26.13
2019-01-19T09:25:55.394Z,23.47
2019-01-19T09:28:24.802Z,26.07
2019-01-19T09:30:54.258Z,28.42
2019-01-19T09:33:23.630Z,24.90
2019-01-19T09:35:53.015Z,29.00
2019-01-19T09:38:22.363Z,22.67
2019-01-19T09:40:51.723Z,24.43
2019-01-19T09:43:26.052Z,25.53
2019-01-19T09:45:55.412Z,26.40
2019-01-19T09:48:24.772Z,22.73
2019-01-19T09:50:54.167Z,28.33
2019-01-19T09:53:23.518Z,25.77
2019-01-19T09:55:52.860Z,23.87
2019-01-19T09:58:22.240Z,19.60
2019-01-19T10:00:51.583Z,20.80
2019-01-19T10:03:20.927Z,23.03
2019-01-19T10:05:50.303Z,22.93
2019-01-19T10:08:19.658Z,21.40
2019-01-19T10:10:49.000Z,23.63
2019-01-19T10:13:18.390Z,23.80
2019-01-19T10:15:47.739Z,28.27
2019-01-19T10:18:17.660Z,23.50
2019-01-19T10:20:47.039Z,26.83
2019-01-19T10:23:16.375Z,26.20
2019-01-19T10:25:45.727Z,25.60
2019-01-19T10:28:15.100Z,24.60
2019-01-19T10:30:44.457Z,29.57
2019-01-19T10:33:13.867Z,25.90
2019-01-19T10:35:43.259Z,35.50
2019-01-19T10:38:12.625Z,35.07
2019-01-19T10:40:41.941Z,26.40
2019-01-19T10:43:11.303Z,26.40
2019-01-19T10:45:40.621Z,27.80
2019-01-19T10:48:09.945Z,24.27
2019-01-19T10:50:39.306Z,27.23
2019-01-19T10:53:08.629Z,29.67
2019-01-19T10:55:37.966Z,26.33
2019-01-19T10:58:07.321Z,27.87
2019-01-19T11:00:36.730Z,28.40
2019-01-19T11:03:06.121Z,29.67
2019-01-19T11:05:35.488Z,26.50
2019-01-19T11:08:06.469Z,28.30
2019-01-19T11:10:35.785Z,24.97
2019-01-19T11:13:05.152Z,27.07
2019-01-19T11:15:34.477Z,25.83
2019-01-19T11:18:03.874Z,21.33
2019-01-19T11:20:33.231Z,21.50
2019-01-19T11:23:02.564Z,20.70
2019-01-19T11:25:31.887Z,19.33
2019-01-19T11:28:01.246Z,17.80
2019-01-19T11:30:32.777Z,17.43
2019-01-19T11:33:02.174Z,17.63
2019-01-19T11:35:31.536Z,20.47
2019-01-19T11:38:00.865Z,20.73
2019-01-19T11:40:35.747Z,24.23
2019-01-19T11:43:06.771Z,28.10
2019-01-19T11:45:36.101Z,20.80
2019-01-19T11:48:05.779Z,22.73
2019-01-19T11:50:35.125Z,23.00
2019-01-19T11:53:04.610Z,21.03
2019-01-19T11:55:34.010Z,26.73
2019-01-19T11:58:04.306Z,25.63
2019-01-19T12:00:38.394Z,25.60
2019-01-19T12:03:07.870Z,26.30
2019-01-19T12:05:39.062Z,28.23
2019-01-19T12:08:09.703Z,28.20
2019-01-19T12:10:39.107Z,26.47
2019-01-19T12:13:08.538Z,24.50
2019-01-19T12:15:37.863Z,30.17
2019-01-19T12:18:07.267Z,29.77
2019-01-19T12:20:39.126Z,27.30
2019-01-19T12:23:09.095Z,28.47
2019-01-19T12:25:38.417Z,29.43
2019-01-19T12:28:07.445Z,31.53
2019-01-19T12:30:36.750Z,30.67
2019-01-19T12:33:05.754Z,28.63
2019-01-19T12:35:35.081Z,29.60
2019-01-19T12:38:04.154Z,35.43
2019-01-19T12:40:33.399Z,29.33
2019-01-19T12:43:06.986Z,29.17
2019-01-19T12:45:39.433Z,32.80
2019-01-19T12:48:08.434Z,29.23
2019-01-19T12:50:37.702Z,32.07
2019-01-19T12:53:07.026Z,29.20
2019-01-19T12:55:36.366Z,29.23
2019-01-19T12:58:06.861Z,27.83
2019-01-19T13:00:36.264Z,25.63
2019-01-19T13:03:06.633Z,25.13
2019-01-19T13:05:37.240Z,24.43
2019-01-19T13:08:08.013Z,22.47
2019-01-19T13:10:46.397Z,23.17
2019-01-19T13:13:15.717Z,23.67
2019-01-19T13:15:51.058Z,24.80
2019-01-19T13:18:27.544Z,27.20
2019-01-19T13:20:59.886Z,23.47
2019-01-19T13:23:33.073Z,26.00
2019-01-19T13:26:08.446Z,26.43
2019-01-19T13:28:49.499Z,22.50
2019-01-19T13:31:33.766Z,27.73
2019-01-19T13:34:40.429Z,30.03
2019-01-19T13:37:32.355Z,35.10
2019-01-19T13:40:02.877Z,37.77
2019-01-19T13:42:35.202Z,31.37
2019-01-19T13:45:13.307Z,31.43
2019-01-19T13:48:06.605Z,26.50
2019-01-19T13:50:39.039Z,34.77
2019-01-19T13:53:44.513Z,31.80
2019-01-19T13:56:26.977Z,29.00
2019-01-19T13:59:04.848Z,48.77
2019-01-19T14:01:43.202Z,48.50
2019-01-19T14:04:18.299Z,26.93
2019-01-19T14:07:05.431Z,27.17
2019-01-19T14:09:46.308Z,37.17
2019-01-19T14:12:24.533Z,35.60
2019-01-19T14:15:11.595Z,29.97
2019-01-19T14:17:46.673Z,27.33
2019-01-19T14:20:36.737Z,34.33
2019-01-19T14:23:15.861Z,33.43
2019-01-19T14:26:02.813Z,32.83
2019-01-19T14:28:39.021Z,29.47
2019-01-19T14:31:26.364Z,28.93
2019-01-19T14:34:04.485Z,27.93
2019-01-19T14:36:46.609Z,31.57
2019-01-19T14:39:30.897Z,31.57
2019-01-19T14:42:12.090Z,30.40
2019-01-19T14:44:56.248Z,33.23
2019-01-19T14:47:40.694Z,31.03
2019-01-19T14:50:13.136Z,28.93
2019-01-19T14:53:06.183Z,28.00
2019-01-19T14:55:44.473Z,29.77
2019-01-19T14:58:17.945Z,29.63
2019-01-19T15:01:08.249Z,33.27
2019-01-19T15:03:43.297Z,36.00
2019-01-19T15:06:15.729Z,32.77
2019-01-19T15:08:53.855Z,32.87
2019-01-19T15:11:31.958Z,32.10
2019-01-19T15:14:16.220Z,29.73
2019-01-19T15:16:54.594Z,28.13
2019-01-19T15:19:37.130Z,30.43
2019-01-19T15:22:20.890Z,33.80
2019-01-19T15:25:15.517Z,31.87
2019-01-19T15:27:53.906Z,31.10
2019-01-19T15:30:29.241Z,40.63
2019-01-19T15:33:13.289Z,58.30
2019-01-19T15:36:01.979Z,60.50
2019-01-19T15:38:58.186Z,63.67
2019-01-19T15:42:05.051Z,42.37
2019-01-19T15:44:43.086Z,32.77
2019-01-19T15:47:30.274Z,37.10
2019-01-19T15:50:18.988Z,41.53
2019-01-19T15:52:51.385Z,48.43
2019-01-19T15:55:43.259Z,44.40
2019-01-19T15:58:15.661Z,46.83
2019-01-19T16:00:53.772Z,53.73
2019-01-19T16:03:40.925Z,51.00
2019-01-19T16:06:34.160Z,43.40
2019-01-19T16:09:23.886Z,40.67
2019-01-19T16:11:59.069Z,38.37
2019-01-19T16:14:59.994Z,50.10
2019-01-19T16:17:41.010Z,49.73
2019-01-19T16:20:35.678Z,49.30
2019-01-19T16:23:22.775Z,43.73
2019-01-19T16:26:10.035Z,43.23
2019-01-19T16:28:54.509Z,40.70
2019-01-19T16:31:25.058Z,37.27
2019-01-19T16:34:12.227Z,37.10
2019-01-19T16:37:02.529Z,35.27
2019-01-19T16:39:33.089Z,35.53
2019-01-19T16:42:08.065Z,40.27
2019-01-19T16:44:49.174Z,48.93
2019-01-19T16:47:33.461Z,36.40
2019-01-19T16:50:14.733Z,39.93
2019-01-19T16:52:47.142Z,40.70
2019-01-19T16:55:22.518Z,36.13
2019-01-19T16:57:57.735Z,31.83
2019-01-19T17:00:44.790Z,32.60
2019-01-19T17:03:35.570Z,37.00
2019-01-19T17:06:34.543Z,33.27
2019-01-19T17:09:10.729Z,38.70
2019-01-19T17:11:51.646Z,41.37
2019-01-19T17:14:46.606Z,40.27
2019-01-19T17:17:52.190Z,37.67
2019-01-19T17:20:22.731Z,41.10
2019-01-19T17:23:15.773Z,36.77
2019-01-19T17:26:07.294Z,40.57
2019-01-19T17:28:48.558Z,31.43
2019-01-19T17:31:29.178Z,37.23
2019-01-19T17:34:08.526Z,35.33
2019-01-19T17:36:41.623Z,36.10
2019-01-19T17:39:19.526Z,37.97
2019-01-19T17:42:15.690Z,37.23
2019-01-19T17:44:55.040Z,39.40
2019-01-19T17:47:25.481Z,45.70
2019-01-19T17:50:06.291Z,42.80
2019-01-19T17:52:36.829Z,40.87
2019-01-19T17:55:24.034Z,33.50
2019-01-19T17:57:59.498Z,41.70
2019-01-19T18:00:58.786Z,35.13
2019-01-19T18:03:53.614Z,34.83
2019-01-19T18:06:36.071Z,37.67
2019-01-19T18:09:09.242Z,33.23
2019-01-19T18:11:39.689Z,35.40
2019-01-19T18:14:17.590Z,33.87
2019-01-19T18:16:51.061Z,32.90
2019-01-19T18:19:27.283Z,36.70
2019-01-19T18:22:20.238Z,35.43
2019-01-19T18:25:04.017Z,33.07
2019-01-19T18:27:45.092Z,36.70
2019-01-19T18:30:17.707Z,32.50
2019-01-19T18:32:48.332Z,31.57
2019-01-19T18:35:26.515Z,33.83
2019-01-19T18:38:13.479Z,40.33
2019-01-19T18:40:56.906Z,36.17
2019-01-19T18:43:44.194Z,41.13
2019-01-19T18:46:31.418Z,34.60
2019-01-19T18:49:24.472Z,33.27
2019-01-19T18:51:59.582Z,35.40
2019-01-19T18:54:34.230Z,32.90
2019-01-19T18:57:24.439Z,32.33
2019-01-19T18:59:59.619Z,33.77
2019-01-19T19:02:32.440Z,37.97
2019-01-19T19:05:12.101Z,41.77
2019-01-19T19:07:44.453Z,42.53
2019-01-19T19:10:20.992Z,39.27
2019-01-19T19:13:07.673Z,42.93
2019-01-19T19:15:44.034Z,35.77
2019-01-19T19:18:22.363Z,37.47
2019-01-19T19:21:13.923Z,37.80
2019-01-19T19:23:49.024Z,38.63
2019-01-19T19:26:34.361Z,43.50
2019-01-19T19:29:25.845Z,44.40
2019-01-19T19:31:58.350Z,42.07
2019-01-19T19:34:31.629Z,42.73
2019-01-19T19:37:04.594Z,40.70
2019-01-19T19:39:53.289Z,44.90
2019-01-19T19:42:26.727Z,41.10
2019-01-19T19:45:00.232Z,42.53
2019-01-19T19:47:44.101Z,43.40
2019-01-19T19:50:32.601Z,40.23
2019-01-19T19:53:01.602Z,44.37
2019-01-19T19:55:29.773Z,44.13
2019-01-19T19:57:59.142Z,43.50
2019-01-19T20:00:28.215Z,45.83
2019-01-19T20:02:57.526Z,38.67
2019-01-19T20:05:26.897Z,43.10
2019-01-19T20:07:55.920Z,39.20
2019-01-19T20:10:24.836Z,40.07
2019-01-19T20:12:54.179Z,45.03
2019-01-19T20:15:23.505Z,40.57
2019-01-19T20:17:52.510Z,40.37
2019-01-19T20:20:21.795Z,45.40
2019-01-19T20:22:51.145Z,47.23
2019-01-19T20:25:20.494Z,50.53
2019-01-19T20:27:49.526Z,50.10
2019-01-19T20:30:18.944Z,43.40
2019-01-19T20:32:47.953Z,44.87
2019-01-19T20:35:17.257Z,46.67
2019-01-19T20:37:46.257Z,46.00
2019-01-19T20:40:15.162Z,42.83
2019-01-19T20:42:44.467Z,50.20
2019-01-19T20:45:13.733Z,43.60
2019-01-19T20:47:42.983Z,44.00
2019-01-19T20:50:12.292Z,41.53
2019-01-19T20:52:41.600Z,45.03
2019-01-19T20:55:11.823Z,39.90
2019-01-19T20:57:40.900Z,42.77
2019-01-19T21:00:12.617Z,43.63
2019-01-19T21:02:41.533Z,41.67
2019-01-19T21:05:10.941Z,43.43
2019-01-19T21:07:40.285Z,42.53
2019-01-19T21:10:09.355Z,38.90
2019-01-19T21:12:38.639Z,42.53
2019-01-19T21:15:15.322Z,44.30
2019-01-19T21:17:44.481Z,50.43
2019-01-19T21:20:14.421Z,46.93
2019-01-19T21:22:43.319Z,44.87
2019-01-19T21:25:13.438Z,46.33
2019-01-19T21:27:42.446Z,44.37
2019-01-19T21:30:12.769Z,47.90
2019-01-19T21:32:41.830Z,49.83
2019-01-19T21:35:10.897Z,45.93
2019-01-19T21:37:39.820Z,49.07
2019-01-19T21:40:11.601Z,52.90
2019-01-19T21:42:40.601Z,54.80
2019-01-19T21:45:19.914Z,48.70
2019-01-19T21:47:49.155Z,47.83
2019-01-19T21:50:18.166Z,53.70
2019-01-19T21:52:47.441Z,49.43
2019-01-19T21:55:16.777Z,47.30
2019-01-19T21:57:45.783Z,52.93
2019-01-19T22:00:16.266Z,51.33
2019-01-19T22:02:45.178Z,47.23
2019-01-19T22:05:14.158Z,39.40
2019-01-19T22:07:43.431Z,44.53
2019-01-19T22:10:17.946Z,43.50
2019-01-19T22:12:47.403Z,49.80
2019-01-19T22:15:18.155Z,41.33
2019-01-19T22:17:47.489Z,42.57
2019-01-19T22:20:17.982Z,41.40
2019-01-19T22:22:47.364Z,41.33
2019-01-19T22:25:16.357Z,38.10
2019-01-19T22:27:47.048Z,43.87
2019-01-19T22:30:17.203Z,42.50
2019-01-19T22:32:47.468Z,39.00
2019-01-19T22:35:16.470Z,40.10
2019-01-19T22:37:45.409Z,39.70
2019-01-19T22:40:18.157Z,40.37
2019-01-19T22:42:47.899Z,38.07
2019-01-19T22:45:17.147Z,40.10
2019-01-19T22:47:46.057Z,37.70
2019-01-19T22:50:15.739Z,41.57
2019-01-19T22:52:44.678Z,39.37
2019-01-19T22:55:13.860Z,40.40
2019-01-19T22:57:43.107Z,40.77
2019-01-19T23:00:13.683Z,37.20
2019-01-19T23:02:42.926Z,40.33
2019-01-19T23:05:11.933Z,44.03
2019-01-19T23:07:41.210Z,36.40
2019-01-19T23:10:10.205Z,37.20
2019-01-19T23:12:39.075Z,35.37
2019-01-19T23:15:10.689Z,35.57
2019-01-19T23:17:39.685Z,40.60
2019-01-19T23:20:09.364Z,39.07
2019-01-19T23:22:38.705Z,38.77
2019-01-19T23:25:08.487Z,31.77
2019-01-19T23:27:37.394Z,38.00
2019-01-19T23:30:13.976Z,39.87
2019-01-19T23:32:42.883Z,38.80
2019-01-19T23:35:11.795Z,35.13
2019-01-19T23:37:40.739Z,36.77
2019-01-19T23:40:10.885Z,41.33
2019-01-19T23:42:46.919Z,42.73
2019-01-19T23:45:10.541Z,37.93
2019-01-19T23:47:39.461Z,38.33
2019-01-19T23:50:09.142Z,37.80
2019-01-19T23:52:38.091Z,37.97
2019-01-19T23:55:07.065Z,36.50
2019-01-19T23:57:36.309Z,39.50
